createdAt,value
2022-10-11T00:00:52.696Z,100.00
2022-10-11T00:01:54.927Z,100.00
2022-10-11T00:02:57.805Z,100.00
2022-10-11T00:03:59.916Z,100.00
2022-10-11T00:05:01.813Z,100.00
2022-10-11T00:06:04.508Z,100.00
2022-10-11T00:07:06.884Z,100.00
2022-10-11T00:08:10.420Z,100.00
2022-10-11T00:09:12.618Z,100.00
2022-10-11T00:10:15.035Z,100.00
2022-10-11T00:11:16.973Z,100.00
2022-10-11T00:12:18.857Z,100.00
2022-10-11T00:13:20.727Z,100.00
2022-10-11T00:14:24.147Z,100.00
2022-10-11T00:15:26.244Z,100.00
2022-10-11T00:16:28.405Z,100.00
2022-10-11T00:17:31.416Z,100.00
2022-10-11T00:18:33.302Z,100.00
2022-10-11T00:19:35.230Z,100.00
2022-10-11T00:20:37.223Z,100.00
2022-10-11T00:21:39.113Z,100.00
2022-10-11T00:22:41.632Z,100.00
2022-10-11T00:23:43.511Z,100.00
2022-10-11T00:24:45.497Z,100.00
2022-10-11T00:25:51.144Z,100.00
2022-10-11T00:26:53.278Z,100.00
2022-10-11T00:27:55.166Z,100.00
2022-10-11T00:28:57.254Z,100.00
2022-10-11T00:29:59.850Z,100.00
2022-10-11T00:31:04.918Z,100.00
2022-10-11T00:32:07.215Z,100.00
2022-10-11T00:33:09.129Z,100.00
2022-10-11T00:34:10.999Z,100.00
2022-10-11T00:35:12.891Z,100.00
2022-10-11T00:36:15.432Z,100.00
2022-10-11T00:37:17.984Z,100.00
2022-10-11T00:38:20.070Z,100.00
2022-10-11T00:39:22.523Z,100.00
2022-10-11T00:40:24.765Z,100.00
2022-10-11T00:41:27.142Z,100.00
2022-10-11T00:42:29.150Z,100.00
2022-10-11T00:43:31.973Z,100.00
2022-10-11T00:44:34.014Z,100.00
2022-10-11T00:45:39.788Z,100.00
2022-10-11T00:46:45.986Z,100.00
2022-10-11T00:47:48.165Z,100.00
2022-10-11T00:48:56.602Z,100.00
2022-10-11T00:50:01.276Z,100.00
2022-10-11T00:51:07.397Z,100.00
2022-10-11T00:52:28.427Z,100.00
2022-10-11T00:53:32.972Z,100.00
2022-10-11T00:54:38.713Z,100.00
2022-10-11T00:55:49.810Z,100.00
2022-10-11T00:58:05.638Z,100.00
2022-10-11T00:59:11.320Z,100.00
2022-10-11T01:00:15.319Z,100.00
2022-10-11T01:01:17.309Z,100.00
2022-10-11T01:02:20.817Z,100.00
2022-10-11T01:03:26.293Z,100.00
2022-10-11T01:04:28.479Z,100.00
2022-10-11T01:05:31.511Z,100.00
2022-10-11T01:06:34.294Z,100.00
2022-10-11T01:07:37.604Z,100.00
2022-10-11T01:08:39.916Z,100.00
2022-10-11T01:09:41.994Z,100.00
2022-10-11T01:10:44.163Z,100.00
2022-10-11T01:11:47.997Z,100.00
2022-10-11T01:13:11.307Z,100.00
2022-10-11T01:14:23.091Z,100.00
2022-10-11T01:15:28.782Z,100.00
2022-10-11T01:16:34.626Z,100.00
2022-10-11T01:17:57.020Z,100.00
2022-10-11T01:19:11.999Z,100.00
2022-10-11T01:20:21.071Z,100.00
2022-10-11T01:21:32.822Z,100.00
2022-10-11T01:23:13.587Z,100.00
2022-10-11T01:24:37.223Z,100.00
2022-10-11T01:25:59.876Z,100.00
2022-10-11T01:27:11.734Z,100.00
2022-10-11T01:28:23.519Z,100.00
2022-10-11T01:29:34.921Z,100.00
2022-10-11T01:30:38.220Z,100.00
2022-10-11T01:31:53.072Z,100.00
2022-10-11T01:33:24.810Z,100.00
2022-10-11T01:34:42.460Z,100.00
2022-10-11T01:35:48.152Z,100.00
2022-10-11T01:37:03.148Z,100.00
2022-10-11T01:38:11.638Z,100.00
2022-10-11T01:39:26.556Z,100.00
2022-10-11T01:41:54.760Z,100.00
2022-10-11T01:42:57.069Z,100.00
2022-10-11T01:44:01.660Z,100.00
2022-10-11T01:45:07.171Z,100.00
2022-10-11T01:46:11.158Z,100.00
2022-10-11T01:47:13.367Z,100.00
2022-10-11T01:48:15.600Z,100.00
2022-10-11T01:49:17.511Z,100.00
2022-10-11T01:50:44.815Z,100.00
2022-10-11T01:51:50.528Z,100.00
2022-10-11T01:52:54.107Z,100.00
2022-10-11T01:54:05.605Z,100.00
2022-10-11T01:55:20.222Z,100.00
2022-10-11T01:56:32.222Z,100.00
2022-10-11T01:57:50.023Z,100.00
2022-10-11T01:59:04.905Z,100.00
2022-10-11T02:00:17.151Z,100.00
2022-10-11T02:01:47.653Z,100.00
2022-10-11T02:03:02.551Z,100.00
2022-10-11T02:04:20.592Z,100.00
2022-10-11T02:05:26.245Z,100.00
2022-10-11T02:06:48.679Z,100.00
2022-10-11T02:08:17.484Z,100.00
2022-10-11T02:09:47.772Z,100.00
2022-10-11T02:10:59.472Z,100.00
2022-10-11T02:13:19.381Z,100.00
2022-10-11T02:14:24.840Z,100.00
2022-10-11T02:15:30.291Z,100.00
2022-10-11T02:17:52.165Z,100.00
2022-10-11T02:18:57.242Z,100.00
2022-10-11T02:20:02.603Z,100.00
2022-10-11T02:21:08.029Z,100.00
2022-10-11T02:22:13.699Z,100.00
2022-10-11T02:23:22.365Z,100.00
2022-10-11T02:24:31.179Z,100.00
2022-10-11T02:25:35.632Z,100.00
2022-10-11T02:26:41.107Z,100.00
2022-10-11T02:27:46.791Z,100.00
2022-10-11T02:28:52.592Z,100.00
2022-10-11T02:29:57.119Z,100.00
2022-10-11T02:31:01.507Z,100.00
2022-10-11T02:32:04.180Z,100.00
2022-10-11T02:33:09.638Z,100.00
2022-10-11T02:34:15.423Z,100.00
2022-10-11T02:35:18.602Z,100.00
2022-10-11T02:36:24.416Z,100.00
2022-10-11T02:37:54.634Z,100.00
2022-10-11T02:39:00.584Z,100.00
2022-10-11T02:40:27.595Z,100.00
2022-10-11T02:41:33.291Z,100.00
2022-10-11T02:42:47.657Z,100.00
2022-10-11T02:43:53.390Z,100.00
2022-10-11T02:46:09.731Z,100.00
2022-10-11T02:47:13.107Z,100.00
2022-10-11T02:48:15.593Z,100.00
2022-10-11T02:49:19.116Z,100.00
2022-10-11T02:50:22.001Z,100.00
2022-10-11T02:51:25.478Z,100.00
2022-10-11T02:52:27.735Z,100.00
2022-10-11T02:53:30.251Z,100.00
2022-10-11T02:54:32.542Z,100.00
2022-10-11T02:55:35.113Z,100.00
2022-10-11T02:56:37.455Z,100.00
2022-10-11T02:57:39.577Z,100.00
2022-10-11T02:58:41.479Z,100.00
2022-10-11T02:59:44.156Z,100.00
2022-10-11T03:00:47.075Z,100.00
2022-10-11T03:01:49.183Z,100.00
2022-10-11T03:02:51.767Z,100.00
2022-10-11T03:03:53.918Z,100.00
2022-10-11T03:04:55.967Z,100.00
2022-10-11T03:06:01.976Z,100.00
2022-10-11T03:07:04.447Z,100.00
2022-10-11T03:08:08.611Z,100.00
2022-10-11T03:09:10.724Z,100.00
2022-10-11T03:10:12.711Z,100.00
2022-10-11T03:11:14.928Z,100.00
2022-10-11T03:12:16.951Z,100.00
2022-10-11T03:13:19.086Z,100.00
2022-10-11T03:14:20.965Z,100.00
2022-10-11T03:15:22.890Z,100.00
2022-10-11T03:16:25.159Z,100.00
2022-10-11T03:17:42.842Z,100.00
2022-10-11T03:18:31.976Z,100.00
2022-10-11T03:19:33.844Z,100.00
2022-10-11T03:20:35.834Z,100.00
2022-10-11T03:21:38.128Z,100.00
2022-10-11T03:22:40.315Z,100.00
2022-10-11T03:23:42.222Z,100.00
2022-10-11T03:24:44.376Z,100.00
2022-10-11T03:25:46.562Z,100.00
2022-10-11T03:26:48.638Z,100.00
2022-10-11T03:27:50.744Z,100.00
2022-10-11T03:28:52.831Z,100.00
2022-10-11T03:29:54.896Z,100.00
2022-10-11T03:30:57.436Z,100.00
2022-10-11T03:31:59.345Z,100.00
2022-10-11T03:33:01.251Z,100.00
2022-10-11T03:34:03.118Z,100.00
2022-10-11T03:35:06.785Z,100.00
2022-10-11T03:36:09.533Z,100.00
2022-10-11T03:37:11.466Z,100.00
2022-10-11T03:38:19.239Z,100.00
2022-10-11T03:39:21.627Z,100.00
2022-10-11T03:40:23.974Z,100.00
2022-10-11T03:41:26.433Z,100.00
2022-10-11T03:42:28.620Z,100.00
2022-10-11T03:43:30.641Z,100.00
2022-10-11T03:44:32.580Z,100.00
2022-10-11T03:45:35.006Z,100.00
2022-10-11T03:46:37.107Z,100.00
2022-10-11T03:47:39.894Z,100.00
2022-10-11T03:48:41.859Z,100.00
2022-10-11T03:49:44.027Z,100.00
2022-10-11T03:50:48.087Z,100.00
2022-10-11T03:51:50.171Z,100.00
2022-10-11T03:52:52.136Z,100.00
2022-10-11T03:53:54.016Z,100.00
2022-10-11T03:54:55.888Z,100.00
2022-10-11T03:55:57.788Z,100.00
2022-10-11T03:56:59.789Z,100.00
2022-10-11T03:58:01.665Z,100.00
2022-10-11T03:59:03.612Z,100.00
2022-10-11T04:00:07.574Z,100.00
2022-10-11T04:01:10.620Z,100.00
2022-10-11T04:02:13.133Z,100.00
2022-10-11T04:03:15.370Z,100.00
2022-10-11T04:04:17.372Z,100.00
2022-10-11T04:05:19.234Z,100.00
2022-10-11T04:06:21.244Z,100.00
2022-10-11T04:07:23.150Z,100.00
2022-10-11T04:08:25.279Z,100.00
2022-10-11T04:09:27.516Z,100.00
2022-10-11T04:10:29.832Z,100.00
2022-10-11T04:11:31.992Z,100.00
2022-10-11T04:12:34.340Z,100.00
2022-10-11T04:13:36.279Z,100.00
2022-10-11T04:14:38.241Z,100.00
2022-10-11T04:15:40.341Z,100.00
2022-10-11T04:16:42.643Z,100.00
2022-10-11T04:17:44.804Z,100.00
2022-10-11T04:18:46.764Z,100.00
2022-10-11T04:19:48.980Z,100.00
2022-10-11T04:20:50.975Z,100.00
2022-10-11T04:21:53.140Z,100.00
2022-10-11T04:22:55.476Z,100.00
2022-10-11T04:24:00.324Z,100.00
2022-10-11T04:25:02.430Z,100.00
2022-10-11T04:26:06.509Z,100.00
2022-10-11T04:27:09.046Z,100.00
2022-10-11T04:28:11.090Z,100.00
2022-10-11T04:29:13.371Z,100.00
2022-10-11T04:30:16.244Z,100.00
2022-10-11T04:31:18.321Z,100.00
2022-10-11T04:32:20.519Z,100.00
2022-10-11T04:33:23.655Z,100.00
2022-10-11T04:34:25.801Z,100.00
2022-10-11T04:35:27.709Z,100.00
2022-10-11T04:36:30.110Z,100.00
2022-10-11T04:37:32.266Z,100.00
2022-10-11T04:38:34.281Z,100.00
2022-10-11T04:39:36.393Z,100.00
2022-10-11T04:40:39.524Z,100.00
2022-10-11T04:41:41.560Z,100.00
2022-10-11T04:42:43.473Z,100.00
2022-10-11T04:43:45.389Z,100.00
2022-10-11T04:44:47.841Z,100.00
2022-10-11T04:45:54.642Z,100.00
2022-10-11T04:46:53.701Z,100.00
2022-10-11T04:47:55.722Z,100.00
2022-10-11T04:48:57.747Z,100.00
2022-10-11T04:49:59.844Z,100.00
2022-10-11T04:51:02.147Z,100.00
2022-10-11T04:52:04.171Z,100.00
2022-10-11T04:53:06.253Z,100.00
2022-10-11T04:54:08.399Z,100.00
2022-10-11T04:55:10.756Z,100.00
2022-10-11T04:56:12.758Z,100.00
2022-10-11T04:57:14.641Z,100.00
2022-10-11T04:58:16.541Z,100.00
2022-10-11T04:59:18.948Z,100.00
2022-10-11T05:00:21.530Z,100.00
2022-10-11T05:01:23.477Z,100.00
2022-10-11T05:02:25.484Z,100.00
2022-10-11T05:03:27.754Z,100.00
2022-10-11T05:04:29.731Z,100.00
2022-10-11T05:05:31.602Z,100.00
2022-10-11T05:06:33.602Z,100.00
2022-10-11T05:07:35.861Z,100.00
2022-10-11T05:08:38.006Z,100.00
2022-10-11T05:09:39.911Z,100.00
2022-10-11T05:10:42.421Z,100.00
2022-10-11T05:11:44.306Z,100.00
2022-10-11T05:12:46.218Z,100.00
2022-10-11T05:13:48.499Z,100.00
2022-10-11T05:14:50.444Z,100.00
2022-10-11T05:15:52.420Z,100.00
2022-10-11T05:16:54.803Z,100.00
2022-10-11T05:17:57.139Z,100.00
2022-10-11T05:18:59.564Z,100.00
2022-10-11T05:20:04.714Z,100.00
2022-10-11T05:21:10.354Z,100.00
2022-10-11T05:22:12.281Z,100.00
2022-10-11T05:23:14.820Z,100.00
2022-10-11T05:24:17.027Z,100.00
2022-10-11T05:25:18.900Z,100.00
2022-10-11T05:26:21.831Z,100.00
2022-10-11T05:27:23.892Z,100.00
2022-10-11T05:28:26.202Z,100.00
2022-10-11T05:29:28.314Z,100.00
2022-10-11T05:30:30.329Z,100.00
2022-10-11T05:31:32.205Z,100.00
2022-10-11T05:32:34.201Z,100.00
2022-10-11T05:33:36.580Z,100.00
2022-10-11T05:34:38.456Z,100.00
2022-10-11T05:35:40.848Z,100.00
2022-10-11T05:36:42.830Z,100.00
2022-10-11T05:37:45.777Z,100.00
2022-10-11T05:38:47.701Z,100.00
2022-10-11T05:39:49.696Z,100.00
2022-10-11T05:40:51.915Z,100.00
2022-10-11T05:41:53.792Z,100.00
2022-10-11T05:42:55.711Z,100.00
2022-10-11T05:43:57.723Z,100.00
2022-10-11T05:44:59.623Z,100.00
2022-10-11T05:46:01.799Z,100.00
2022-10-11T05:47:04.323Z,100.00
2022-10-11T05:48:07.156Z,100.00
2022-10-11T05:49:09.270Z,100.00
2022-10-11T05:50:12.381Z,100.00
2022-10-11T05:51:14.374Z,100.00
2022-10-11T05:52:16.460Z,100.00
2022-10-11T05:53:18.529Z,100.00
2022-10-11T05:54:21.476Z,100.00
2022-10-11T05:55:23.662Z,100.00
2022-10-11T05:56:26.313Z,100.00
2022-10-11T05:57:28.766Z,100.00
2022-10-11T05:58:30.642Z,100.00
2022-10-11T05:59:34.624Z,100.00
2022-10-11T06:00:37.259Z,100.00
2022-10-11T06:01:39.706Z,100.00
2022-10-11T06:02:41.968Z,100.00
2022-10-11T06:03:44.030Z,100.00
2022-10-11T06:04:46.093Z,100.00
2022-10-11T06:05:48.362Z,100.00
2022-10-11T06:06:51.278Z,100.00
2022-10-11T06:07:53.806Z,100.00
2022-10-11T06:08:55.796Z,100.00
2022-10-11T06:09:57.683Z,100.00
2022-10-11T06:11:21.650Z,100.00
2022-10-11T06:12:23.591Z,100.00
2022-10-11T06:13:25.510Z,100.00
2022-10-11T06:14:33.327Z,100.00
2022-10-11T06:15:31.774Z,100.00
2022-10-11T06:16:33.786Z,100.00
2022-10-11T06:17:35.831Z,100.00
2022-10-11T06:18:37.708Z,100.00
2022-10-11T06:19:39.765Z,100.00
2022-10-11T06:20:41.935Z,100.00
2022-10-11T06:21:44.067Z,99.67
2022-10-11T06:22:45.976Z,98.53
2022-10-11T06:23:50.395Z,97.67
2022-10-11T06:24:52.437Z,96.96
2022-10-11T06:26:03.820Z,96.14
2022-10-11T06:27:06.367Z,95.47
2022-10-11T06:28:08.508Z,94.99
2022-10-11T06:29:10.674Z,94.45
2022-10-11T06:30:13.031Z,94.09
2022-10-11T06:31:14.907Z,94.05
2022-10-11T06:32:17.295Z,93.42
2022-10-11T06:33:19.508Z,92.28
2022-10-11T06:34:21.814Z,91.66
2022-10-11T06:35:23.959Z,90.76
2022-10-11T06:36:26.736Z,90.12
2022-10-11T06:37:29.386Z,89.94
2022-10-11T06:38:31.472Z,88.96
2022-10-11T06:39:33.836Z,88.23
2022-10-11T06:40:36.092Z,87.74
2022-10-11T06:41:38.005Z,88.00
2022-10-11T06:42:39.910Z,89.37
2022-10-11T06:43:41.880Z,89.13
2022-10-11T06:44:43.789Z,88.15
2022-10-11T06:45:46.143Z,87.33
2022-10-11T06:46:48.612Z,87.77
2022-10-11T06:47:50.976Z,87.77
2022-10-11T06:48:53.734Z,87.70
2022-10-11T06:49:55.625Z,87.39
2022-10-11T06:51:00.245Z,87.48
2022-10-11T06:52:03.310Z,86.74
2022-10-11T06:53:08.618Z,86.76
2022-10-11T06:54:10.679Z,87.24
2022-10-11T06:55:12.553Z,87.02
2022-10-11T06:56:14.640Z,87.52
2022-10-11T06:57:16.710Z,87.94
2022-10-11T06:58:19.007Z,86.77
2022-10-11T06:59:21.227Z,86.28
2022-10-11T07:00:23.537Z,85.67
2022-10-11T07:01:26.722Z,85.44
2022-10-11T07:02:28.760Z,85.00
2022-10-11T07:03:31.596Z,85.13
2022-10-11T07:04:33.798Z,84.07
2022-10-11T07:05:36.033Z,84.47
2022-10-11T07:06:40.392Z,84.08
2022-10-11T07:07:42.672Z,83.88
2022-10-11T07:08:45.007Z,84.85
2022-10-11T07:09:47.253Z,83.78
2022-10-11T07:10:52.679Z,83.07
2022-10-11T07:11:54.596Z,83.08
2022-10-11T07:12:56.500Z,81.90
2022-10-11T07:14:01.232Z,80.49
2022-10-11T07:15:04.149Z,79.73
2022-10-11T07:16:09.846Z,79.10
2022-10-11T07:17:12.035Z,78.27
2022-10-11T07:18:13.943Z,78.01
2022-10-11T07:19:15.967Z,77.72
2022-10-11T07:20:18.283Z,78.78
2022-10-11T07:21:20.498Z,78.79
2022-10-11T07:22:22.422Z,78.96
2022-10-11T07:23:24.744Z,79.44
2022-10-11T07:24:26.845Z,79.35
2022-10-11T07:25:28.718Z,79.89
2022-10-11T07:26:38.184Z,79.66
2022-10-11T07:27:35.519Z,80.12
2022-10-11T07:28:39.385Z,79.86
2022-10-11T07:29:41.529Z,79.27
2022-10-11T07:30:43.703Z,78.19
2022-10-11T07:31:45.565Z,77.37
2022-10-11T07:32:47.466Z,77.94
2022-10-11T07:33:50.186Z,78.02
2022-10-11T07:34:52.086Z,76.99
2022-10-11T07:35:56.598Z,76.49
2022-10-11T07:36:58.777Z,76.39
2022-10-11T07:38:01.041Z,76.33
2022-10-11T07:39:05.464Z,74.86
2022-10-11T07:40:09.604Z,74.36
2022-10-11T07:41:12.396Z,72.74
2022-10-11T07:42:14.305Z,72.74
2022-10-11T07:43:16.384Z,73.53
2022-10-11T07:44:18.414Z,73.96
2022-10-11T07:45:20.279Z,74.07
2022-10-11T07:46:22.498Z,74.15
2022-10-11T07:47:24.913Z,72.87
2022-10-11T07:48:26.798Z,72.34
2022-10-11T07:49:28.819Z,73.79
2022-10-11T07:50:31.212Z,73.67
2022-10-11T07:51:33.097Z,74.16
2022-10-11T07:52:35.150Z,73.59
2022-10-11T07:53:40.332Z,72.84
2022-10-11T07:54:42.317Z,72.09
2022-10-11T07:55:44.189Z,71.86
2022-10-11T07:56:46.165Z,71.21
2022-10-11T07:57:48.047Z,70.75
2022-10-11T07:58:53.029Z,70.38
2022-10-11T07:59:55.201Z,70.63
2022-10-11T08:00:57.296Z,70.78
2022-10-11T08:02:02.354Z,69.87
2022-10-11T08:03:09.701Z,70.30
2022-10-11T08:04:11.470Z,70.46
2022-10-11T08:05:15.587Z,70.70
2022-10-11T08:06:21.175Z,69.96
2022-10-11T08:07:23.666Z,70.07
2022-10-11T08:08:25.533Z,69.60
2022-10-11T08:09:28.316Z,68.71
2022-10-11T08:10:32.315Z,68.07
2022-10-11T08:11:36.402Z,67.80
2022-10-11T08:12:38.332Z,68.11
2022-10-11T08:13:40.413Z,68.23
2022-10-11T08:14:42.562Z,68.36
2022-10-11T08:15:44.463Z,68.19
2022-10-11T08:16:47.454Z,67.34
2022-10-11T08:17:51.358Z,67.49
2022-10-11T08:18:54.741Z,66.87
2022-10-11T08:19:56.653Z,66.75
2022-10-11T08:21:00.579Z,65.15
2022-10-11T08:22:02.921Z,65.29
2022-10-11T08:23:05.492Z,65.08
2022-10-11T08:24:08.023Z,65.13
2022-10-11T08:25:09.963Z,64.97
2022-10-11T08:26:13.398Z,65.94
2022-10-11T08:27:15.475Z,65.27
2022-10-11T08:28:17.786Z,65.43
2022-10-11T08:29:20.270Z,64.72
2022-10-11T08:30:22.592Z,64.07
2022-10-11T08:31:24.709Z,63.52
2022-10-11T08:32:26.816Z,63.52
2022-10-11T08:33:28.856Z,63.11
2022-10-11T08:34:31.243Z,63.22
2022-10-11T08:35:33.370Z,63.45
2022-10-11T08:36:35.605Z,64.21
2022-10-11T08:37:37.516Z,64.49
2022-10-11T08:38:40.653Z,64.90
2022-10-11T08:39:42.616Z,64.67
2022-10-11T08:40:49.636Z,65.36
2022-10-11T08:41:58.130Z,64.32
2022-10-11T08:43:06.868Z,63.77
2022-10-11T08:44:21.496Z,64.24
2022-10-11T08:45:30.566Z,64.76
2022-10-11T08:46:33.900Z,66.17
2022-10-11T08:47:39.106Z,65.42
2022-10-11T08:48:44.161Z,63.96
2022-10-11T08:49:46.822Z,63.64
2022-10-11T08:50:51.617Z,63.27
2022-10-11T08:51:57.285Z,63.49
2022-10-11T08:53:03.224Z,63.93
2022-10-11T08:54:08.918Z,65.35
2022-10-11T08:55:29.798Z,65.18
2022-10-11T08:56:35.806Z,64.75
2022-10-11T08:57:39.540Z,63.81
2022-10-11T08:58:48.566Z,63.25
2022-10-11T08:59:54.255Z,63.49
2022-10-11T09:00:57.349Z,63.90
2022-10-11T09:02:02.989Z,64.64
2022-10-11T09:03:29.755Z,64.43
2022-10-11T09:04:31.845Z,64.24
2022-10-11T09:05:37.077Z,64.86
2022-10-11T09:06:55.190Z,63.70
2022-10-11T09:08:03.814Z,63.33
2022-10-11T09:09:26.624Z,62.89
2022-10-11T09:10:57.093Z,62.49
2022-10-11T09:12:14.886Z,62.19
2022-10-11T09:14:45.741Z,62.37
2022-10-11T09:16:07.176Z,62.97
2022-10-11T09:17:22.540Z,62.93
2022-10-11T09:18:30.991Z,62.42
2022-10-11T09:19:56.899Z,62.11
2022-10-11T09:21:20.374Z,61.17
2022-10-11T09:22:44.756Z,60.55
2022-10-11T09:23:51.402Z,60.53
2022-10-11T09:25:06.209Z,60.70
2022-10-11T09:26:27.482Z,61.57
2022-10-11T09:28:01.107Z,60.62
2022-10-11T09:29:04.882Z,60.62
2022-10-11T09:30:13.924Z,60.20
2022-10-11T09:31:16.645Z,59.72
2022-10-11T09:32:20.229Z,60.02
2022-10-11T09:33:35.006Z,60.77
2022-10-11T09:34:39.832Z,61.29
2022-10-11T09:35:45.583Z,61.02
2022-10-11T09:36:54.816Z,57.74
2022-10-11T09:38:29.509Z,57.78
2022-10-11T09:39:34.393Z,57.53
2022-10-11T09:41:01.760Z,57.80
2022-10-11T09:42:09.706Z,58.62
2022-10-11T09:43:12.201Z,59.18
2022-10-11T09:44:21.267Z,59.19
2022-10-11T09:45:23.226Z,59.47
2022-10-11T09:46:38.016Z,59.95
2022-10-11T09:47:39.949Z,59.95
2022-10-11T09:48:41.948Z,59.50
2022-10-11T09:49:53.936Z,59.13
2022-10-11T09:52:16.227Z,58.37
2022-10-11T09:53:18.251Z,59.64
2022-10-11T09:54:22.333Z,60.00
2022-10-11T09:55:36.823Z,59.07
2022-10-11T09:56:44.526Z,58.01
2022-10-11T09:57:50.238Z,57.89
2022-10-11T09:59:11.446Z,57.54
2022-10-11T10:00:28.943Z,56.19
2022-10-11T10:01:31.181Z,55.50
2022-10-11T10:02:40.302Z,56.19
2022-10-11T10:03:43.616Z,57.32
2022-10-11T10:04:56.097Z,59.29
2022-10-11T10:06:12.304Z,59.70
2022-10-11T10:07:15.685Z,59.90
2022-10-11T10:08:21.644Z,59.94
2022-10-11T10:09:29.309Z,59.42
2022-10-11T10:10:38.685Z,59.35
2022-10-11T10:11:41.345Z,59.19
2022-10-11T10:12:44.242Z,58.98
2022-10-11T10:15:15.659Z,58.00
2022-10-11T10:16:24.656Z,56.88
2022-10-11T10:17:27.425Z,57.60
2022-10-11T10:18:33.119Z,57.59
2022-10-11T10:19:44.990Z,57.93
2022-10-11T10:20:53.645Z,58.08
2022-10-11T10:21:57.602Z,58.24
2022-10-11T10:24:26.831Z,58.28
2022-10-11T10:25:39.606Z,58.88
2022-10-11T10:26:40.391Z,59.14
2022-10-11T10:27:46.473Z,58.94
2022-10-11T10:29:01.618Z,58.95
2022-10-11T10:30:10.806Z,61.14
2022-10-11T10:31:23.322Z,61.50
2022-10-11T10:32:29.284Z,60.39
2022-10-11T10:33:34.735Z,59.94
2022-10-11T10:34:59.162Z,60.19
2022-10-11T10:36:09.115Z,60.20
2022-10-11T10:38:35.256Z,60.40
2022-10-11T10:39:58.905Z,60.49
2022-10-11T10:41:07.678Z,60.90
2022-10-11T10:43:29.145Z,61.64
2022-10-11T10:44:31.073Z,61.26
2022-10-11T10:45:36.718Z,61.06
2022-10-11T10:46:42.558Z,60.69
2022-10-11T10:47:54.492Z,59.96
2022-10-11T10:50:20.215Z,60.05
2022-10-11T10:51:41.270Z,59.86
2022-10-11T10:53:03.831Z,59.40
2022-10-11T10:54:30.524Z,59.31
2022-10-11T10:56:02.759Z,59.28
2022-10-11T10:57:17.850Z,59.06
2022-10-11T10:58:43.438Z,58.42
2022-10-11T11:00:07.680Z,58.21
2022-10-11T11:01:25.136Z,58.50
2022-10-11T11:02:55.499Z,58.21
2022-10-11T11:04:13.402Z,58.44
2022-10-11T11:05:52.825Z,58.32
2022-10-11T11:07:15.924Z,57.35
2022-10-11T11:08:47.745Z,56.84
2022-10-11T11:10:00.430Z,54.11
2022-10-11T11:11:27.324Z,53.69
2022-10-11T11:12:45.299Z,54.33
2022-10-11T11:14:03.429Z,54.87
2022-10-11T11:15:19.766Z,54.36
2022-10-11T11:16:38.232Z,53.43
2022-10-11T11:17:46.816Z,53.57
2022-10-11T11:19:15.189Z,54.10
2022-10-11T11:20:41.824Z,53.10
2022-10-11T11:22:04.259Z,51.96
2022-10-11T11:23:34.092Z,51.24
2022-10-11T11:24:42.603Z,51.08
2022-10-11T11:26:05.211Z,49.23
2022-10-11T11:27:22.877Z,48.59
2022-10-11T11:28:31.655Z,48.17
2022-10-11T11:29:46.735Z,47.98
2022-10-11T11:31:17.165Z,47.46
2022-10-11T11:32:35.267Z,47.29
2022-10-11T11:33:59.385Z,45.92
2022-10-11T11:35:05.158Z,44.72
2022-10-11T11:36:14.256Z,40.95
2022-10-11T11:37:22.959Z,40.40
2022-10-11T11:38:34.383Z,39.84
2022-10-11T11:39:38.109Z,39.45
2022-10-11T11:40:46.674Z,39.67
2022-10-11T11:41:58.082Z,38.78
2022-10-11T11:43:13.964Z,39.03
2022-10-11T11:44:31.313Z,38.56
2022-10-11T11:45:42.774Z,38.87
2022-10-11T11:46:51.469Z,38.13
2022-10-11T11:49:25.021Z,38.74
2022-10-11T11:50:40.145Z,38.42
2022-10-11T11:51:45.025Z,38.52
2022-10-11T11:52:56.988Z,39.36
2022-10-11T11:54:18.382Z,39.92
2022-10-11T11:55:29.834Z,40.64
2022-10-11T11:56:54.404Z,40.59
2022-10-11T11:58:15.474Z,40.57
2022-10-11T11:59:27.296Z,40.07
2022-10-11T12:02:25.851Z,41.86
2022-10-11T12:03:31.693Z,41.99
2022-10-11T12:04:40.431Z,42.47
2022-10-11T12:06:02.660Z,42.58
2022-10-11T12:07:16.222Z,42.96
2022-10-11T12:08:27.308Z,43.71
2022-10-11T12:09:31.303Z,44.00
2022-10-11T12:10:52.401Z,43.79
2022-10-11T12:12:07.178Z,43.56
2022-10-11T12:13:18.913Z,43.80
2022-10-11T12:14:27.649Z,43.57
2022-10-11T12:15:31.118Z,43.89
2022-10-11T12:16:33.324Z,43.73
2022-10-11T12:17:57.206Z,43.86
2022-10-11T12:19:01.736Z,43.82
2022-10-11T12:20:22.378Z,44.18
2022-10-11T12:21:34.224Z,44.28
2022-10-11T12:22:39.894Z,44.69
2022-10-11T12:23:48.016Z,45.11
2022-10-11T12:24:58.830Z,45.53
2022-10-11T12:26:30.369Z,45.98
2022-10-11T12:27:54.102Z,45.61
2022-10-11T12:29:28.733Z,45.33
2022-10-11T12:30:48.567Z,46.88
2022-10-11T12:32:00.236Z,47.82
2022-10-11T12:33:14.735Z,47.88
2022-10-11T12:34:32.071Z,48.74
2022-10-11T12:35:37.176Z,48.64
2022-10-11T12:36:48.537Z,48.77
2022-10-11T12:37:56.042Z,48.91
2022-10-11T12:39:22.199Z,49.21
2022-10-11T12:40:36.812Z,49.68
2022-10-11T12:41:51.534Z,49.63
2022-10-11T12:43:12.642Z,49.87
2022-10-11T12:44:24.407Z,49.94
2022-10-11T12:45:32.167Z,49.98
2022-10-11T12:46:40.986Z,50.09
2022-10-11T12:48:09.649Z,50.34
2022-10-11T12:49:41.278Z,50.29
2022-10-11T12:50:50.192Z,50.28
2022-10-11T12:52:05.301Z,49.92
2022-10-11T12:53:28.029Z,49.75
2022-10-11T12:55:04.554Z,49.98
2022-10-11T12:56:25.996Z,50.04
2022-10-11T12:57:51.332Z,49.86
2022-10-11T12:59:02.908Z,49.81
2022-10-11T13:00:23.823Z,50.10
2022-10-11T13:01:29.704Z,50.33
2022-10-11T13:02:40.296Z,49.91
2022-10-11T13:03:52.045Z,50.14
2022-10-11T13:06:22.907Z,49.39
2022-10-11T13:07:24.933Z,49.09
2022-10-11T13:09:48.846Z,48.07
2022-10-11T13:10:48.160Z,48.05
2022-10-11T13:11:53.958Z,47.72
2022-10-11T13:12:56.786Z,47.40
2022-10-11T13:14:02.438Z,46.93
2022-10-11T13:15:08.487Z,47.30
2022-10-11T13:16:17.950Z,47.01
2022-10-11T13:17:26.290Z,46.60
2022-10-11T13:21:08.275Z,46.81
2022-10-11T13:22:20.044Z,47.03
2022-10-11T13:23:25.743Z,47.21
2022-10-11T13:24:37.248Z,47.72
2022-10-11T13:25:39.393Z,47.67
2022-10-11T13:26:44.799Z,47.82
2022-10-11T13:27:48.837Z,47.99
2022-10-11T13:28:50.948Z,48.71
2022-10-11T13:29:56.859Z,48.93
2022-10-11T13:30:59.278Z,49.27
2022-10-11T13:32:05.076Z,49.65
2022-10-11T13:33:10.756Z,49.71
2022-10-11T13:34:13.931Z,49.99
2022-10-11T13:35:32.004Z,50.07
2022-10-11T13:36:34.276Z,49.98
2022-10-11T13:37:39.905Z,50.28
2022-10-11T13:38:45.572Z,50.17
2022-10-11T13:39:49.914Z,50.16
2022-10-11T13:40:52.457Z,50.19
2022-10-11T13:41:55.659Z,49.78
2022-10-11T13:42:59.165Z,50.05
2022-10-11T13:44:02.735Z,50.00
2022-10-11T13:45:11.562Z,49.87
2022-10-11T13:46:20.384Z,49.89
2022-10-11T13:47:26.075Z,49.94
2022-10-11T13:48:31.865Z,49.80
2022-10-11T13:49:37.438Z,49.28
2022-10-11T13:50:39.972Z,49.03
2022-10-11T13:51:44.500Z,49.32
2022-10-11T13:52:56.088Z,49.54
2022-10-11T13:54:04.323Z,49.59
2022-10-11T13:55:09.459Z,49.90
2022-10-11T13:56:15.401Z,50.00
2022-10-11T13:57:17.755Z,50.10
2022-10-11T13:58:35.273Z,50.29
2022-10-11T13:59:41.129Z,50.33
2022-10-11T14:00:53.224Z,50.43
2022-10-11T14:02:00.358Z,50.43
2022-10-11T14:03:09.442Z,50.36
2022-10-11T14:04:14.060Z,50.14
2022-10-11T14:06:48.794Z,50.55
2022-10-11T14:07:53.225Z,50.53
2022-10-11T14:08:56.384Z,50.40
2022-10-11T14:09:59.073Z,51.26
2022-10-11T14:11:06.308Z,51.26
2022-10-11T14:12:38.572Z,51.48
2022-10-11T14:13:45.901Z,51.48
2022-10-11T14:14:48.624Z,51.83
2022-10-11T14:16:15.150Z,52.47
2022-10-11T14:17:20.316Z,51.87
2022-10-11T14:18:42.692Z,52.01
2022-10-11T14:19:47.416Z,52.13
2022-10-11T14:20:49.460Z,52.57
2022-10-11T14:21:52.833Z,52.70
2022-10-11T14:22:54.904Z,52.75
2022-10-11T14:24:01.470Z,53.01
2022-10-11T14:25:04.120Z,53.75
2022-10-11T14:26:09.055Z,54.00
2022-10-11T14:27:17.535Z,53.70
2022-10-11T14:28:19.505Z,53.86
2022-10-11T14:29:27.840Z,54.12
2022-10-11T14:30:30.335Z,54.33
2022-10-11T14:31:32.318Z,54.76
2022-10-11T14:32:35.023Z,54.61
2022-10-11T14:33:37.838Z,54.69